Pagina principale
METAR-TAF:

METAR-TAF

Aeroporti :

Altenstadt, Germania

latitudine: 47-50N, longitudine: 010-52E, altezza: 739 m

Osservazione

Il bollettino è stato emesso 1 ora e 8 minuti fa, alle 18:20 UTC
Vento 7 kt da nord/nord-est
Temperature 15°C
Umidità 55%
Pressione 1023 hPa

METAR: ETHA 231820Z AUTO 02007KT //// // ////// 15/06 Q1023 ///

Ora: 21:28 (19:28 UTC)


TAF: mancante

Osservazioni e previsioni meteorologiche di più di 4000 aeroporti (messaggi METAR e TAF).

Le stazioni disponibili sono rappresentate dai dischi gialli e rossi sulla carta.

Puntare il mouse per vedere il nome della stazione.

Clicca sopra per visualizzare le osservazioni e previsioni meteorologiche.

Per cambiare la mappa : fare clic sui pulsanti verdi con una croce nera per ingrandire, il pulsante verde con un trattino per diminuire, o sulla freccia verde per le mappe adiacenti.


METAR-TAF: